Time;durP1;ratioP1;P1;durP2;ratioP2;P2;SDS_P1;SDS_P2;PMS_P1;PMS_P2;Temp;Humidity;BMP_temperature;BMP_pressure;BME280_temperature;BME280_humidity;BME280_pressure;Samples;Min_cycle;Max_cycle;Signal;HPM_P1;HPM_P2
2021/07/11 00:01:55;;;;;;;2.40;1.83;;;17.10;99.90;;;;;;5063395;28;20636;-89
2021/07/11 00:04:23;;;;;;;2.30;2.10;;;17.00;99.90;;;;;;5047171;28;20629;-90
2021/07/11 00:06:49;;;;;;;2.50;2.30;;;16.90;99.90;;;;;;5047183;28;20628;-89
2021/07/11 00:09:18;;;;;;;1.93;1.83;;;16.90;99.90;;;;;;5065396;28;20629;-90
2021/07/11 00:11:47;;;;;;;3.10;2.30;;;17.00;99.90;;;;;;5067315;28;21082;-90
2021/07/11 00:14:13;;;;;;;3.17;1.87;;;16.90;99.90;;;;;;5074004;28;20671;-90
2021/07/11 00:16:40;;;;;;;3.43;2.40;;;16.90;99.90;;;;;;5071407;28;20618;-90
2021/07/11 00:19:07;;;;;;;2.27;2.00;;;16.80;99.90;;;;;;5070453;28;20629;-89
2021/07/11 00:21:34;;;;;;;2.20;2.00;;;16.90;99.90;;;;;;5066757;28;20613;-89
2021/07/11 00:24:01;;;;;;;2.70;2.50;;;16.80;99.90;;;;;;5050804;28;20660;-92
2021/07/11 00:26:30;;;;;;;1.87;1.77;;;16.80;99.90;;;;;;5068727;28;20979;-90
2021/07/11 00:28:59;;;;;;;2.60;2.40;;;16.70;99.90;;;;;;5062732;28;20630;-91
2021/07/11 00:31:26;;;;;;;10.10;2.70;;;16.60;99.90;;;;;;5064235;28;20665;-90
2021/07/11 00:33:53;;;;;;;2.20;2.07;;;16.70;99.90;;;;;;5066745;28;20641;-89
2021/07/11 00:36:20;;;;;;;2.03;1.70;;;16.70;99.90;;;;;;5063851;28;20661;-90
2021/07/11 00:38:47;;;;;;;2.20;2.00;;;16.60;99.90;;;;;;5060930;28;21026;-90
2021/07/11 00:41:14;;;;;;;3.00;2.13;;;16.60;99.90;;;;;;5066954;28;20645;-90
2021/07/11 00:43:42;;;;;;;2.77;2.20;;;16.60;99.90;;;;;;5065670;28;20629;-90
2021/07/11 00:46:09;;;;;;;1.90;1.80;;;16.60;99.90;;;;;;5067878;28;20633;-90
2021/07/11 00:48:36;;;;;;;2.00;1.80;;;16.50;99.90;;;;;;5068726;28;20617;-90
2021/07/11 00:51:03;;;;;;;2.50;2.00;;;16.60;99.90;;;;;;5067472;28;20982;-90
2021/07/11 00:53:30;;;;;;;1.93;1.83;;;16.60;99.90;;;;;;5066746;28;20643;-91
2021/07/11 00:55:59;;;;;;;3.10;1.90;;;16.50;99.90;;;;;;5068171;28;20675;-90
2021/07/11 00:58:26;;;;;;;2.50;2.30;;;16.50;99.90;;;;;;5064224;28;21200;-91
2021/07/11 01:00:56;;;;;;;3.30;2.20;;;16.50;99.90;;;;;;5062698;28;20652;-91
2021/07/11 01:03:29;;;;;;;2.33;2.17;;;16.40;99.90;;;;;;5065132;28;20632;-91
2021/07/11 01:05:56;;;;;;;2.20;2.10;;;16.30;99.90;;;;;;5063614;28;20640;-91
2021/07/11 01:08:34;;;;;;;3.13;2.20;;;16.30;99.90;;;;;;5062630;28;20633;-90
2021/07/11 01:11:04;;;;;;;2.00;1.90;;;16.20;99.90;;;;;;5068675;28;20708;-89
2021/07/11 01:13:33;;;;;;;2.67;2.10;;;16.20;99.90;;;;;;5066863;28;20636;-89
2021/07/11 01:16:04;;;;;;;2.20;2.07;;;16.20;99.90;;;;;;5063085;28;20657;-92
2021/07/11 01:18:37;;;;;;;2.83;2.60;;;16.20;99.90;;;;;;5064949;28;20622;-91
2021/07/11 01:21:07;;;;;;;2.13;1.83;;;16.20;99.90;;;;;;5063103;28;21226;-90
2021/07/11 01:23:43;;;;;;;3.07;2.87;;;16.20;99.90;;;;;;5062464;28;20629;-90
2021/07/11 01:26:13;;;;;;;3.07;2.40;;;16.20;99.90;;;;;;5062118;28;21171;-89
2021/07/11 01:28:42;;;;;;;2.37;2.17;;;16.20;99.90;;;;;;5062636;28;20622;-90
2021/07/11 01:31:10;;;;;;;2.50;2.30;;;16.20;99.90;;;;;;5064454;28;20711;-90
2021/07/11 01:33:40;;;;;;;2.00;1.80;;;16.10;99.90;;;;;;5064659;28;20625;-90
2021/07/11 01:36:09;;;;;;;2.33;2.23;;;16.20;99.90;;;;;;5076046;28;20660;-91
2021/07/11 01:38:37;;;;;;;2.67;2.30;;;16.10;99.90;;;;;;5078481;28;20637;-90
2021/07/11 01:41:05;;;;;;;2.67;2.50;;;16.20;99.90;;;;;;5064597;28;20657;-91
2021/07/11 01:43:35;;;;;;;2.40;2.20;;;16.20;99.90;;;;;;5063436;28;20625;-90
2021/07/11 01:46:03;;;;;;;3.07;2.50;;;16.20;99.90;;;;;;5063793;28;20617;-91
2021/07/11 01:48:31;;;;;;;2.80;1.90;;;16.20;99.90;;;;;;5063158;28;20640;-90
2021/07/11 01:50:58;;;;;;;1.87;1.77;;;16.20;99.90;;;;;;5064245;28;20645;-89
2021/07/11 01:53:28;;;;;;;2.10;2.00;;;16.30;99.90;;;;;;5070701;28;20627;-91
2021/07/11 01:55:56;;;;;;;2.60;2.40;;;16.30;99.90;;;;;;5065848;28;20637;-90
2021/07/11 01:58:23;;;;;;;1.73;1.63;;;16.30;99.90;;;;;;5067871;28;20642;-90
2021/07/11 02:00:53;;;;;;;2.70;2.30;;;16.30;99.90;;;;;;5071417;28;20723;-91
2021/07/11 02:03:21;;;;;;;2.73;2.10;;;16.30;99.90;;;;;;5070916;28;20635;-91
2021/07/11 02:05:48;;;;;;;4.53;2.47;;;16.30;99.90;;;;;;5069377;28;20630;-90
2021/07/11 02:08:16;;;;;;;2.33;2.23;;;16.30;99.90;;;;;;5069676;28;20635;-90
2021/07/11 02:10:46;;;;;;;2.67;2.30;;;16.20;99.90;;;;;;5066569;28;20998;-91
2021/07/11 02:13:18;;;;;;;2.80;1.70;;;16.30;99.90;;;;;;5065014;28;21168;-89
2021/07/11 02:15:48;;;;;;;3.23;1.80;;;16.30;99.90;;;;;;5065568;28;20665;-89
2021/07/11 02:18:22;;;;;;;2.00;1.90;;;16.30;99.90;;;;;;5067398;28;20624;-91
2021/07/11 02:20:51;;;;;;;2.00;1.90;;;16.30;99.90;;;;;;5068721;28;20712;-90
2021/07/11 02:23:19;;;;;;;2.23;1.80;;;16.30;99.90;;;;;;5069855;28;20633;-89
2021/07/11 02:25:46;;;;;;;2.40;2.20;;;16.30;99.90;;;;;;5065315;28;20618;-90
2021/07/11 02:28:13;;;;;;;3.60;2.60;;;16.30;99.90;;;;;;5067602;28;20629;-90
2021/07/11 02:30:42;;;;;;;3.97;2.10;;;16.30;99.90;;;;;;5046770;28;20676;-90
2021/07/11 02:33:14;;;;;;;2.17;2.00;;;16.30;99.90;;;;;;5066981;28;20715;-90
2021/07/11 02:35:45;;;;;;;2.20;2.10;;;16.30;99.90;;;;;;5069298;28;20683;-90
2021/07/11 02:38:13;;;;;;;3.13;2.83;;;16.30;99.90;;;;;;5059880;28;20616;-91
2021/07/11 02:40:40;;;;;;;7.07;2.57;;;16.30;99.90;;;;;;5062498;28;20652;-90
2021/07/11 02:43:09;;;;;;;2.03;1.93;;;16.30;99.90;;;;;;5069842;28;20613;-91
2021/07/11 02:45:37;;;;;;;2.63;2.40;;;16.30;99.90;;;;;;5065758;28;20629;-90
2021/07/11 02:48:08;;;;;;;4.00;2.10;;;16.20;99.90;;;;;;5064156;28;20636;-90
2021/07/11 02:50:35;;;;;;;2.53;2.20;;;16.20;99.90;;;;;;5067806;28;21223;-90
2021/07/11 02:53:05;;;;;;;2.43;2.23;;;16.30;99.90;;;;;;5069087;28;20632;-90
2021/07/11 02:55:35;;;;;;;1.93;1.80;;;16.20;99.90;;;;;;5066849;28;20657;-90
2021/07/11 02:58:08;;;;;;;4.03;2.50;;;16.20;99.90;;;;;;5062549;28;20637;-90
2021/07/11 03:00:35;;;;;;;3.70;2.73;;;16.30;99.90;;;;;;5061955;28;20644;-89
2021/07/11 03:03:03;;;;;;;4.50;2.30;;;16.20;99.90;;;;;;5062928;28;21045;-89
2021/07/11 03:05:31;;;;;;;3.00;2.00;;;16.20;99.90;;;;;;5067065;28;20617;-89
2021/07/11 03:07:58;;;;;;;2.70;2.00;;;16.20;99.90;;;;;;5065508;28;20665;-91
2021/07/11 03:10:26;;;;;;;2.40;2.17;;;16.20;99.90;;;;;;5065026;28;20636;-89
2021/07/11 03:12:54;;;;;;;3.20;2.47;;;16.20;99.90;;;;;;5064188;28;20626;-90
2021/07/11 03:15:23;;;;;;;3.23;2.20;;;16.20;99.90;;;;;;5066471;28;20673;-89
2021/07/11 03:17:53;;;;;;;5.43;2.20;;;16.20;99.90;;;;;;5065364;28;20653;-90
2021/07/11 03:20:21;;;;;;;1.93;1.83;;;16.10;99.90;;;;;;5067603;28;20629;-89
2021/07/11 03:22:51;;;;;;;2.47;2.00;;;16.10;99.90;;;;;;5065513;28;20636;-90
2021/07/11 03:25:18;;;;;;;1.90;1.80;;;16.10;99.90;;;;;;5068851;28;20632;-90
2021/07/11 03:27:48;;;;;;;1.77;1.67;;;16.10;99.90;;;;;;5066961;28;21230;-90
2021/07/11 03:30:20;;;;;;;3.17;1.90;;;16.00;99.90;;;;;;5074279;28;20613;-90
2021/07/11 03:32:54;;;;;;;3.43;2.60;;;16.00;99.90;;;;;;5072123;28;20958;-90
2021/07/11 03:35:30;;;;;;;2.67;2.47;;;16.00;99.90;;;;;;5055908;28;21242;-90
2021/07/11 03:38:01;;;;;;;2.37;1.80;;;16.00;99.90;;;;;;5071141;28;20663;-90
2021/07/11 03:40:31;;;;;;;2.07;1.90;;;15.90;99.90;;;;;;5072376;28;20727;-91
2021/07/11 03:43:03;;;;;;;2.33;2.17;;;15.90;99.90;;;;;;5078802;28;20617;-90
2021/07/11 03:45:32;;;;;;;2.00;1.73;;;16.00;99.90;;;;;;5076076;28;20585;-90
2021/07/11 03:48:05;;;;;;;3.30;2.00;;;15.90;99.90;;;;;;5060899;28;20645;-90
2021/07/11 03:50:32;;;;;;;3.07;2.50;;;15.90;99.90;;;;;;5062592;28;20620;-90
2021/07/11 03:53:04;;;;;;;2.20;2.00;;;16.00;99.90;;;;;;5048760;28;20690;-90
2021/07/11 03:55:34;;;;;;;2.37;2.17;;;16.00;99.90;;;;;;5059096;28;20712;-90
2021/07/11 03:58:03;;;;;;;2.47;2.30;;;16.00;99.90;;;;;;5062918;28;20662;-90
2021/07/11 04:00:31;;;;;;;3.73;2.67;;;15.90;99.90;;;;;;5063708;28;20633;-90
2021/07/11 04:03:02;;;;;;;2.60;2.40;;;16.00;99.90;;;;;;5060717;28;20618;-89
2021/07/11 04:05:38;;;;;;;4.67;2.30;;;16.00;99.90;;;;;;5060036;28;20644;-90
2021/07/11 04:08:11;;;;;;;2.47;2.27;;;15.90;99.90;;;;;;5062617;28;20649;-90
2021/07/11 04:10:40;;;;;;;4.90;3.10;;;16.00;99.90;;;;;;5059690;28;20590;-89
2021/07/11 04:13:08;;;;;;;2.77;2.30;;;16.00;99.90;;;;;;5064510;28;20640;-89
2021/07/11 04:15:35;;;;;;;2.77;2.10;;;16.10;99.90;;;;;;5061552;28;20644;-90
2021/07/11 04:18:06;;;;;;;2.07;1.87;;;16.10;99.90;;;;;;5063934;28;20649;-89
2021/07/11 04:20:34;;;;;;;2.97;2.37;;;16.10;99.90;;;;;;5080124;28;20601;-90
2021/07/11 04:23:03;;;;;;;5.50;1.87;;;16.10;99.90;;;;;;5077476;28;20617;-90
2021/07/11 04:25:32;;;;;;;2.90;1.97;;;16.20;99.90;;;;;;5076529;28;20621;-89
2021/07/11 04:28:00;;;;;;;2.90;2.17;;;16.10;99.90;;;;;;5066070;28;21439;-90
2021/07/11 04:30:30;;;;;;;2.40;2.20;;;16.20;99.90;;;;;;5068396;28;20640;-89
2021/07/11 04:32:57;;;;;;;2.20;2.00;;;16.20;99.90;;;;;;5067695;28;20616;-90
2021/07/11 04:35:25;;;;;;;4.53;2.57;;;16.20;99.90;;;;;;5065922;28;21172;-91
2021/07/11 04:37:52;;;;;;;2.70;2.47;;;16.20;99.90;;;;;;5063870;28;20654;-90
2021/07/11 04:40:20;;;;;;;2.17;1.90;;;16.20;99.90;;;;;;5067047;28;20641;-90
2021/07/11 04:42:47;;;;;;;2.63;2.43;;;16.30;99.90;;;;;;5064910;28;20624;-90
2021/07/11 04:45:16;;;;;;;2.30;2.00;;;16.30;99.90;;;;;;5047900;28;20711;-90
2021/07/11 04:47:44;;;;;;;2.00;1.90;;;16.40;99.90;;;;;;5060949;28;20639;-91
2021/07/11 04:50:12;;;;;;;2.87;2.07;;;16.30;99.90;;;;;;5061859;28;21179;-91
2021/07/11 04:52:39;;;;;;;2.50;2.27;;;16.40;99.90;;;;;;5060792;28;20649;-91
2021/07/11 04:55:08;;;;;;;2.27;2.07;;;16.40;99.90;;;;;;5049014;28;20679;-89
2021/07/11 04:57:35;;;;;;;2.87;2.40;;;16.40;99.90;;;;;;5062136;28;21161;-90
2021/07/11 05:00:03;;;;;;;2.33;2.10;;;16.40;99.90;;;;;;5061024;28;21148;-91
2021/07/11 05:02:30;;;;;;;2.17;2.07;;;16.40;99.90;;;;;;5047031;28;20633;-90
2021/07/11 05:04:58;;;;;;;3.93;2.30;;;16.40;99.90;;;;;;5061553;28;20624;-89
2021/07/11 05:07:25;;;;;;;2.23;2.03;;;16.40;99.90;;;;;;5063123;28;21097;-91
2021/07/11 05:09:52;;;;;;;3.20;2.17;;;16.40;99.90;;;;;;5061484;28;20616;-90
2021/07/11 05:12:19;;;;;;;1.97;1.87;;;16.40;99.90;;;;;;5065896;28;20654;-90
2021/07/11 05:14:45;;;;;;;2.80;2.43;;;16.50;99.90;;;;;;5063005;28;20633;-90
2021/07/11 05:17:12;;;;;;;4.20;2.43;;;16.50;99.90;;;;;;5061698;28;21495;-90
2021/07/11 05:19:39;;;;;;;1.80;1.70;;;16.40;99.90;;;;;;5065237;28;20609;-90
2021/07/11 05:22:07;;;;;;;3.00;2.27;;;16.40;99.90;;;;;;5065773;28;21160;-89
2021/07/11 05:24:34;;;;;;;2.20;2.00;;;16.50;99.90;;;;;;5064500;28;20636;-90
2021/07/11 05:27:01;;;;;;;3.13;2.27;;;16.50;99.90;;;;;;5062886;28;20625;-90
2021/07/11 05:29:28;;;;;;;2.40;2.20;;;16.50;99.90;;;;;;5067560;28;20628;-90
2021/07/11 05:31:55;;;;;;;2.70;2.50;;;16.50;99.90;;;;;;5066447;28;20616;-90
2021/07/11 05:34:22;;;;;;;3.60;2.53;;;16.60;99.90;;;;;;5065295;28;20639;-90
2021/07/11 05:36:49;;;;;;;2.43;2.23;;;16.60;99.90;;;;;;5067767;28;20747;-90
2021/07/11 05:39:19;;;;;;;6.50;2.70;;;16.60;99.90;;;;;;5068998;28;20664;-90
2021/07/11 05:41:47;;;;;;;2.30;2.20;;;16.60;99.90;;;;;;5054025;28;21257;-90
2021/07/11 05:44:14;;;;;;;2.70;2.13;;;16.70;99.90;;;;;;5070506;28;20651;-89
2021/07/11 05:46:41;;;;;;;2.87;2.20;;;16.70;99.90;;;;;;5071516;28;20624;-90
2021/07/11 05:49:08;;;;;;;3.10;1.90;;;16.70;99.90;;;;;;5079054;28;20645;-89
2021/07/11 05:51:34;;;;;;;1.93;1.83;;;16.80;99.90;;;;;;5080628;28;20625;-89
2021/07/11 05:54:01;;;;;;;2.40;2.20;;;16.90;99.90;;;;;;5067771;28;20629;-90
2021/07/11 05:56:29;;;;;;;4.90;2.47;;;16.90;99.90;;;;;;5069282;28;20669;-89
2021/07/11 05:58:56;;;;;;;3.43;2.10;;;17.00;99.90;;;;;;5069744;28;20663;-90
2021/07/11 06:01:23;;;;;;;2.67;2.33;;;17.10;99.90;;;;;;5068011;28;20625;-90
2021/07/11 06:03:51;;;;;;;2.53;2.33;;;17.10;99.90;;;;;;5069242;28;20629;-90
2021/07/11 06:06:18;;;;;;;3.40;2.50;;;17.20;99.90;;;;;;5063876;28;20635;-90
2021/07/11 06:08:45;;;;;;;2.37;2.17;;;17.30;99.90;;;;;;5070155;28;20653;-90
2021/07/11 06:11:12;;;;;;;2.23;2.03;;;17.40;99.90;;;;;;5049351;28;20633;-90
2021/07/11 06:13:40;;;;;;;4.10;3.13;;;17.50;99.90;;;;;;5069263;28;20665;-90
2021/07/11 06:16:07;;;;;;;2.37;2.17;;;17.60;99.90;;;;;;5066768;28;20660;-90
2021/07/11 06:18:33;;;;;;;8.70;2.60;;;17.60;99.90;;;;;;5063665;28;20637;-91
2021/07/11 06:21:00;;;;;;;4.60;2.20;;;17.70;99.90;;;;;;5072620;28;20620;-90
2021/07/11 06:23:27;;;;;;;2.50;2.30;;;17.70;99.90;;;;;;5065565;28;20624;-90
2021/07/11 06:25:54;;;;;;;3.93;2.37;;;17.80;99.90;;;;;;5067128;28;20620;-89
2021/07/11 06:28:21;;;;;;;2.53;2.27;;;18.00;99.90;;;;;;5066456;28;20655;-91
2021/07/11 06:30:49;;;;;;;3.97;1.80;;;18.20;99.90;;;;;;5063283;28;20635;-90
2021/07/11 06:33:16;;;;;;;3.43;1.70;;;18.30;99.90;;;;;;5069318;28;20687;-91
2021/07/11 06:35:43;;;;;;;4.00;1.70;;;18.50;99.90;;;;;;5061102;28;20653;-90
2021/07/11 06:38:09;;;;;;;4.40;2.40;;;18.40;99.90;;;;;;5063128;28;21057;-91
2021/07/11 06:40:36;;;;;;;2.40;2.20;;;18.40;99.90;;;;;;5068757;28;20647;-90
2021/07/11 06:43:03;;;;;;;2.30;1.93;;;18.70;99.90;;;;;;5084933;28;20636;-90
2021/07/11 06:45:30;;;;;;;3.90;2.50;;;18.70;99.90;;;;;;5087350;28;20693;-90
2021/07/11 06:47:58;;;;;;;3.43;2.00;;;18.80;99.90;;;;;;5071600;28;20659;-90
2021/07/11 06:50:25;;;;;;;2.80;2.50;;;19.10;99.90;;;;;;5064723;28;20633;-89
2021/07/11 06:52:52;;;;;;;2.73;1.87;;;19.00;99.90;;;;;;5065488;28;21185;-89
2021/07/11 06:55:19;;;;;;;2.17;1.90;;;19.10;99.90;;;;;;5067647;28;20635;-87
2021/07/11 06:57:46;;;;;;;2.60;1.77;;;19.10;99.90;;;;;;5065656;28;20680;-87
2021/07/11 07:00:15;;;;;;;1.87;1.77;;;19.10;99.90;;;;;;5066181;28;20989;-88
2021/07/11 07:02:42;;;;;;;2.17;2.07;;;19.10;99.90;;;;;;5064626;28;21025;-87
2021/07/11 07:05:12;;;;;;;3.63;1.80;;;19.00;99.90;;;;;;5066660;28;20629;-87
2021/07/11 07:07:40;;;;;;;1.50;1.40;;;19.20;99.90;;;;;;5065205;28;20660;-87
2021/07/11 07:10:09;;;;;;;1.80;1.70;;;19.20;99.90;;;;;;5066503;28;20747;-87
2021/07/11 07:12:36;;;;;;;1.70;1.30;;;19.30;99.90;;;;;;5061461;28;20651;-87
2021/07/11 07:15:04;;;;;;;2.10;1.77;;;19.30;99.90;;;;;;5064464;28;20983;-87
2021/07/11 07:17:31;;;;;;;2.80;1.80;;;19.60;99.90;;;;;;5057482;28;20687;-87
2021/07/11 07:19:57;;;;;;;1.80;1.70;;;19.70;99.90;;;;;;5055199;28;20598;-87
2021/07/11 07:22:25;;;;;;;1.57;1.47;;;19.80;99.90;;;;;;5060255;28;20613;-87
2021/07/11 07:24:52;;;;;;;3.00;2.07;;;19.90;99.90;;;;;;5058029;28;20621;-86
2021/07/11 07:27:19;;;;;;;2.40;2.20;;;20.00;99.90;;;;;;5064533;28;21049;-87
2021/07/11 07:29:46;;;;;;;1.60;1.50;;;20.10;99.90;;;;;;5056162;28;20622;-87
2021/07/11 07:32:12;;;;;;;1.77;1.67;;;20.10;99.90;;;;;;5060456;28;20629;-87
2021/07/11 07:34:39;;;;;;;1.80;1.70;;;20.30;99.90;;;;;;5063779;28;20648;-87
2021/07/11 07:37:06;;;;;;;1.60;1.50;;;20.20;99.90;;;;;;5061155;28;20648;-87
2021/07/11 07:39:34;;;;;;;1.70;1.60;;;20.30;99.90;;;;;;5058580;28;20633;-87
2021/07/11 07:42:01;;;;;;;1.33;1.23;;;20.40;99.90;;;;;;5061184;28;20629;-87
2021/07/11 07:44:28;;;;;;;2.00;1.90;;;20.30;99.90;;;;;;5059211;28;20644;-87
2021/07/11 07:46:55;;;;;;;2.27;1.90;;;20.40;99.90;;;;;;5060614;28;20624;-87
2021/07/11 07:49:21;;;;;;;2.07;1.70;;;20.30;99.90;;;;;;5057889;28;20652;-87
2021/07/11 07:51:48;;;;;;;2.00;1.90;;;20.40;99.90;;;;;;5059869;28;20629;-86
2021/07/11 07:54:15;;;;;;;3.17;1.60;;;20.60;99.90;;;;;;5057955;28;20630;-87
2021/07/11 07:56:43;;;;;;;5.10;1.73;;;20.70;99.90;;;;;;5059584;28;20632;-86
2021/07/11 07:59:10;;;;;;;1.70;1.60;;;20.70;99.90;;;;;;5058599;28;20789;-87
2021/07/11 08:01:38;;;;;;;2.20;2.00;;;20.60;99.90;;;;;;5058288;28;20641;-87
2021/07/11 08:04:05;;;;;;;1.60;1.50;;;20.50;99.90;;;;;;5055285;28;20621;-87
2021/07/11 08:06:33;;;;;;;1.73;1.63;;;20.70;99.90;;;;;;5053186;28;20640;-88
2021/07/11 08:09:00;;;;;;;2.37;1.47;;;20.90;99.90;;;;;;5060714;28;20652;-87
2021/07/11 08:11:27;;;;;;;2.07;1.97;;;20.90;99.90;;;;;;5058504;28;20632;-88
2021/07/11 08:13:56;;;;;;;1.97;1.80;;;20.70;99.90;;;;;;5062332;28;20721;-88
2021/07/11 08:16:22;;;;;;;4.33;1.83;;;20.90;99.90;;;;;;5061251;28;20633;-88
2021/07/11 08:18:49;;;;;;;1.60;1.50;;;20.80;99.90;;;;;;5054197;28;20677;-87
2021/07/11 08:21:16;;;;;;;2.27;2.17;;;20.70;99.90;;;;;;5057354;28;20706;-87
2021/07/11 08:23:43;;;;;;;2.47;2.27;;;20.90;99.90;;;;;;5061177;28;20629;-87
2021/07/11 08:26:11;;;;;;;2.20;2.00;;;20.80;99.90;;;;;;5062327;28;20620;-87
2021/07/11 08:28:38;;;;;;;1.50;1.30;;;20.60;99.90;;;;;;5061082;28;21564;-87
2021/07/11 08:31:06;;;;;;;2.33;1.77;;;20.30;99.90;;;;;;5062148;28;20624;-87
2021/07/11 08:33:33;;;;;;;2.33;1.80;;;20.20;99.90;;;;;;5052282;28;20641;-87
2021/07/11 08:36:00;;;;;;;2.37;2.17;;;20.30;99.90;;;;;;5055255;28;20582;-87
2021/07/11 08:38:30;;;;;;;2.00;1.73;;;20.20;99.90;;;;;;5056500;28;20776;-87
2021/07/11 08:40:57;;;;;;;2.63;1.80;;;20.40;99.90;;;;;;5057711;28;20632;-86
2021/07/11 08:43:25;;;;;;;5.27;1.70;;;20.40;99.90;;;;;;5053399;28;20640;-86
2021/07/11 08:45:51;;;;;;;2.20;1.67;;;20.50;99.90;;;;;;5054561;28;21055;-87
2021/07/11 08:48:19;;;;;;;2.00;1.80;;;20.60;99.90;;;;;;5056477;28;20656;-87
2021/07/11 08:50:46;;;;;;;1.90;1.80;;;20.80;99.90;;;;;;5062577;28;20613;-87
2021/07/11 08:53:14;;;;;;;2.13;1.77;;;20.90;99.90;;;;;;5059222;28;20901;-87
2021/07/11 08:55:42;;;;;;;2.33;2.03;;;21.00;99.90;;;;;;5056632;28;20626;-87
2021/07/11 08:58:13;;;;;;;2.20;2.00;;;21.00;99.90;;;;;;5058237;28;20691;-87
2021/07/11 09:00:40;;;;;;;2.47;1.83;;;21.20;99.90;;;;;;5057374;28;20629;-87
2021/07/11 09:03:08;;;;;;;2.20;1.73;;;21.20;99.90;;;;;;5063099;28;20730;-87
2021/07/11 09:05:40;;;;;;;1.80;1.70;;;21.10;99.90;;;;;;5061620;28;20626;-86
2021/07/11 09:08:11;;;;;;;2.10;1.90;;;20.90;99.90;;;;;;5063372;28;20692;-87
2021/07/11 09:10:42;;;;;;;1.63;1.53;;;20.70;99.90;;;;;;5059289;28;20633;-87
2021/07/11 09:13:11;;;;;;;1.93;1.43;;;20.70;99.90;;;;;;5045467;28;20651;-87
2021/07/11 09:15:42;;;;;;;1.30;1.20;;;20.40;99.90;;;;;;5059296;28;20637;-87
2021/07/11 09:18:09;;;;;;;2.67;2.30;;;20.60;99.90;;;;;;5057246;28;20790;-87
2021/07/11 09:20:55;;;;;;;1.97;1.77;;;20.50;99.90;;;;;;5060271;28;20720;-87
2021/07/11 09:23:23;;;;;;;4.73;1.67;;;20.50;99.90;;;;;;5063815;28;20628;-87
2021/07/11 09:25:57;;;;;;;1.53;1.43;;;20.60;99.90;;;;;;5064551;28;21141;-87
2021/07/11 09:28:24;;;;;;;1.67;1.57;;;20.40;99.90;;;;;;5059488;28;20648;-87
2021/07/11 09:31:01;;;;;;;2.30;1.70;;;20.50;99.90;;;;;;5060046;28;20630;-87
2021/07/11 09:33:28;;;;;;;2.00;1.90;;;20.60;99.90;;;;;;5061324;28;20646;-87
2021/07/11 09:36:09;;;;;;;2.20;2.00;;;20.60;99.90;;;;;;5065184;28;20620;-87
2021/07/11 09:38:36;;;;;;;2.10;1.83;;;20.60;99.90;;;;;;5058417;28;20697;-87
2021/07/11 09:41:15;;;;;;;1.47;1.37;;;20.70;99.90;;;;;;5063430;28;20647;-87
2021/07/11 09:43:42;;;;;;;4.30;1.83;;;20.80;99.90;;;;;;5059330;28;20992;-87
2021/07/11 09:46:13;;;;;;;4.37;1.40;;;21.00;99.90;;;;;;5062714;28;20640;-87
2021/07/11 09:48:40;;;;;;;1.33;1.23;;;21.00;99.90;;;;;;5054932;28;21224;-87
2021/07/11 09:51:15;;;;;;;1.90;1.80;;;21.10;99.90;;;;;;5061192;28;20636;-87
2021/07/11 09:53:42;;;;;;;1.50;1.30;;;21.20;99.90;;;;;;5062939;28;20625;-87
2021/07/11 09:56:10;;;;;;;2.80;1.47;;;21.20;99.90;;;;;;5061256;28;20617;-87
2021/07/11 09:58:37;;;;;;;1.47;1.37;;;21.30;99.90;;;;;;5060951;28;20725;-87
2021/07/11 10:01:03;;;;;;;2.87;1.80;;;21.30;99.90;;;;;;5063483;28;20633;-87
2021/07/11 10:03:31;;;;;;;2.30;1.60;;;21.50;99.90;;;;;;5062393;28;20635;-87
2021/07/11 10:05:58;;;;;;;1.93;1.83;;;21.50;99.90;;;;;;5060755;28;20628;-87
2021/07/11 10:08:26;;;;;;;2.40;1.60;;;21.70;99.90;;;;;;5062471;28;20659;-87
2021/07/11 10:10:53;;;;;;;2.60;1.50;;;21.60;99.90;;;;;;5062122;28;20613;-87
2021/07/11 10:13:20;;;;;;;1.80;1.57;;;21.70;99.90;;;;;;5060562;28;21191;-87
2021/07/11 10:15:48;;;;;;;1.40;1.30;;;21.60;99.90;;;;;;5061271;28;20637;-87
2021/07/11 10:18:17;;;;;;;1.60;1.50;;;21.70;99.90;;;;;;5058792;28;20684;-87
2021/07/11 10:20:48;;;;;;;2.00;1.80;;;21.80;99.90;;;;;;5061582;28;20633;-88
2021/07/11 10:23:24;;;;;;;1.60;1.43;;;21.80;99.90;;;;;;5062149;28;20657;-87
2021/07/11 10:25:58;;;;;;;2.00;1.33;;;22.10;99.90;;;;;;5063899;28;21128;-87
2021/07/11 10:28:29;;;;;;;2.60;1.80;;;22.10;99.90;;;;;;5054733;28;20649;-87
2021/07/11 10:30:57;;;;;;;1.70;1.60;;;22.10;99.90;;;;;;5061217;28;20667;-87
2021/07/11 10:33:26;;;;;;;1.93;1.77;;;22.10;99.90;;;;;;5058227;28;20640;-87
2021/07/11 10:35:57;;;;;;;5.90;2.10;;;22.20;99.90;;;;;;5062855;28;20939;-87
2021/07/11 10:38:33;;;;;;;3.33;2.67;;;22.40;99.90;;;;;;5058716;28;20691;-87
2021/07/11 10:41:15;;;;;;;2.60;1.53;;;22.10;99.90;;;;;;5062275;28;20648;-87
2021/07/11 10:43:44;;;;;;;2.03;1.93;;;22.10;99.90;;;;;;5055732;28;20625;-87
2021/07/11 10:46:11;;;;;;;2.00;1.90;;;22.20;99.90;;;;;;5057690;28;20656;-87
2021/07/11 10:48:38;;;;;;;1.83;1.73;;;22.00;99.90;;;;;;5059641;28;21395;-87
2021/07/11 10:51:06;;;;;;;2.63;2.17;;;22.10;99.90;;;;;;5060656;28;21182;-87
2021/07/11 10:53:34;;;;;;;2.30;2.10;;;22.10;99.90;;;;;;5063038;28;20636;-87
2021/07/11 10:56:01;;;;;;;1.93;1.43;;;22.30;99.90;;;;;;5062762;28;20632;-87
2021/07/11 10:58:38;;;;;;;3.10;1.90;;;22.20;99.90;;;;;;5056537;28;20676;-87
2021/07/11 11:01:16;;;;;;;1.37;1.27;;;21.80;99.90;;;;;;5057404;28;20624;-87
2021/07/11 11:03:47;;;;;;;3.53;1.57;;;21.70;99.90;;;;;;5059286;28;20585;-87
2021/07/11 11:06:18;;;;;;;5.20;1.90;;;21.80;99.90;;;;;;5061304;28;21172;-87
2021/07/11 11:08:45;;;;;;;1.90;1.80;;;21.90;99.90;;;;;;5058699;28;21104;-87
2021/07/11 11:11:12;;;;;;;2.43;2.00;;;21.70;99.90;;;;;;5062372;28;20659;-87
2021/07/11 11:13:41;;;;;;;2.00;1.90;;;21.80;99.90;;;;;;5055549;28;20633;-88
2021/07/11 11:16:16;;;;;;;2.00;1.90;;;22.00;99.90;;;;;;5061309;28;20736;-87
2021/07/11 11:18:44;;;;;;;1.67;1.47;;;21.70;99.90;;;;;;5062108;28;21151;-88
2021/07/11 11:21:15;;;;;;;2.20;1.80;;;21.60;99.90;;;;;;5059275;28;20628;-87
2021/07/11 11:23:46;;;;;;;1.90;1.80;;;21.50;99.90;;;;;;5058176;28;20624;-87
2021/07/11 11:26:18;;;;;;;2.93;1.93;;;21.30;99.90;;;;;;5056696;28;20674;-87
2021/07/11 11:28:47;;;;;;;2.13;1.53;;;21.10;99.90;;;;;;5054784;28;21275;-87
2021/07/11 11:31:17;;;;;;;2.23;2.03;;;21.10;99.90;;;;;;5057769;28;21203;-87
2021/07/11 11:33:50;;;;;;;1.60;1.50;;;21.10;99.90;;;;;;5057687;28;20662;-87
2021/07/11 11:36:22;;;;;;;2.93;1.63;;;21.10;99.90;;;;;;5061691;28;21152;-87
2021/07/11 11:38:50;;;;;;;2.37;2.17;;;21.10;99.90;;;;;;5056626;28;20795;-87
2021/07/11 11:41:18;;;;;;;2.03;1.73;;;21.10;99.90;;;;;;5060982;28;20636;-86
2021/07/11 11:43:47;;;;;;;2.03;1.83;;;21.10;99.90;;;;;;5056895;28;20985;-87
2021/07/11 11:46:28;;;;;;;2.63;2.40;;;20.80;99.90;;;;;;5061743;28;21121;-87
2021/07/11 11:48:56;;;;;;;2.30;2.10;;;20.70;99.90;;;;;;5058598;28;20644;-87
2021/07/11 11:51:24;;;;;;;2.40;2.20;;;20.50;99.90;;;;;;5059420;28;20665;-87
2021/07/11 11:53:51;;;;;;;2.37;2.17;;;20.30;99.90;;;;;;5043847;28;20630;-87
2021/07/11 11:56:18;;;;;;;2.10;1.90;;;20.40;99.90;;;;;;5058467;28;20619;-87
2021/07/11 11:58:49;;;;;;;3.80;2.30;;;20.50;99.90;;;;;;5054439;28;20687;-87
2021/07/11 12:01:17;;;;;;;1.83;1.73;;;20.80;99.90;;;;;;5058095;28;20686;-87
2021/07/11 12:03:48;;;;;;;2.00;1.77;;;21.00;99.90;;;;;;5055296;28;20676;-87
2021/07/11 12:06:17;;;;;;;1.77;1.67;;;21.00;99.90;;;;;;5059562;28;20656;-86
2021/07/11 12:08:45;;;;;;;1.73;1.63;;;21.10;99.90;;;;;;5058855;28;21074;-86
2021/07/11 12:11:13;;;;;;;2.27;2.07;;;21.30;99.90;;;;;;5055979;28;20621;-85
2021/07/11 12:13:41;;;;;;;1.77;1.67;;;21.30;99.90;;;;;;5056048;28;20978;-86
2021/07/11 12:16:12;;;;;;;2.37;2.17;;;21.40;99.90;;;;;;5057075;28;20635;-86
2021/07/11 12:18:49;;;;;;;2.20;1.90;;;21.70;99.90;;;;;;5057931;28;20679;-87
2021/07/11 12:21:21;;;;;;;2.17;1.97;;;21.90;99.90;;;;;;5061558;28;20617;-86
2021/07/11 12:23:59;;;;;;;2.03;1.83;;;22.20;99.90;;;;;;5057458;28;20668;-87
2021/07/11 12:26:27;;;;;;;2.40;2.13;;;22.50;99.90;;;;;;5044812;28;21014;-87
2021/07/11 12:28:55;;;;;;;2.80;2.60;;;22.70;99.90;;;;;;5058461;28;20628;-87
2021/07/11 12:31:24;;;;;;;5.47;2.50;;;23.30;99.90;;;;;;5056900;28;20625;-87
2021/07/11 12:33:57;;;;;;;2.43;2.10;;;23.60;99.90;;;;;;5056280;28;21270;-87
2021/07/11 12:36:24;;;;;;;2.87;2.60;;;24.00;99.90;;;;;;5057795;28;21221;-87
2021/07/11 12:38:52;;;;;;;2.00;1.80;;;25.10;99.90;;;;;;5062427;28;21562;-87
2021/07/11 12:41:19;;;;;;;2.30;2.10;;;25.50;99.90;;;;;;5056434;28;20640;-87
2021/07/11 12:43:48;;;;;;;1.80;1.70;;;25.60;99.90;;;;;;5055906;28;20654;-87
2021/07/11 12:46:17;;;;;;;1.93;1.57;;;26.30;99.90;;;;;;5059890;28;20731;-87
2021/07/11 12:48:47;;;;;;;2.10;1.70;;;27.00;99.90;;;;;;5054604;28;20625;-87
2021/07/11 12:51:17;;;;;;;1.80;1.70;;;27.20;96.20;;;;;;5061273;28;20609;-87
2021/07/11 12:53:44;;;;;;;2.37;1.60;;;26.70;95.30;;;;;;5057913;28;20654;-87
2021/07/11 12:56:14;;;;;;;1.80;1.70;;;26.90;94.90;;;;;;5063234;28;20640;-86